Time;durP1;ratioP1;P1;durP2;ratioP2;P2;SDS_P1;SDS_P2;PMS_P1;PMS_P2;Temp;Humidity;BMP_temperature;BMP_pressure;BME280_temperature;BME280_humidity;BME280_pressure;Samples;Min_cycle;Max_cycle;Signal;HPM_P1;HPM_P2
2021/07/04 00:00:57;;;;;;;14.67;13.47;;;18.10;79.10;;;;;;5047646;28;20464;-79
2021/07/04 00:03:24;;;;;;;15.13;13.83;;;18.10;78.90;;;;;;5052109;28;20484;-79
2021/07/04 00:05:52;;;;;;;15.30;13.90;;;18.00;78.80;;;;;;5053177;28;20473;-79
2021/07/04 00:08:22;;;;;;;16.43;14.73;;;18.00;78.40;;;;;;5061875;28;20457;-79
2021/07/04 00:10:51;;;;;;;15.67;14.37;;;18.00;78.00;;;;;;5068541;28;20467;-78
2021/07/04 00:13:18;;;;;;;15.27;13.83;;;18.10;77.70;;;;;;5065878;28;20453;-79
2021/07/04 00:15:45;;;;;;;14.70;13.40;;;18.20;76.90;;;;;;5062178;28;20488;-79
2021/07/04 00:18:17;;;;;;;14.90;13.47;;;18.20;76.30;;;;;;5061701;28;20547;-79
2021/07/04 00:20:45;;;;;;;14.60;13.27;;;18.20;76.30;;;;;;5041485;28;20455;-77
2021/07/04 00:23:13;;;;;;;14.03;12.80;;;18.20;75.90;;;;;;5056861;28;20512;-79
2021/07/04 00:25:41;;;;;;;14.20;13.00;;;18.30;75.70;;;;;;5051816;28;20596;-78
2021/07/04 00:28:09;;;;;;;14.93;13.43;;;18.30;75.60;;;;;;5057414;28;20973;-78
2021/07/04 00:30:36;;;;;;;12.50;11.30;;;18.30;75.30;;;;;;5053561;28;20487;-79
2021/07/04 00:33:04;;;;;;;13.63;12.47;;;18.30;74.90;;;;;;5048901;28;20461;-78
2021/07/04 00:35:33;;;;;;;13.33;12.23;;;18.40;74.60;;;;;;5045973;28;20503;-79
2021/07/04 00:38:00;;;;;;;13.53;12.33;;;18.40;74.40;;;;;;5053844;28;20533;-79
2021/07/04 00:40:28;;;;;;;13.67;12.53;;;18.50;74.30;;;;;;5058333;28;20460;-79
2021/07/04 00:42:55;;;;;;;13.87;12.60;;;18.40;74.20;;;;;;5044519;28;20525;-79
2021/07/04 00:45:24;;;;;;;14.10;12.80;;;18.40;74.40;;;;;;5036300;28;20673;-79
2021/07/04 00:47:52;;;;;;;14.07;12.80;;;18.40;74.50;;;;;;5035452;28;20615;-79
2021/07/04 00:50:21;;;;;;;12.83;11.73;;;18.40;74.60;;;;;;5037811;28;20460;-79
2021/07/04 00:52:50;;;;;;;13.70;12.30;;;18.40;74.70;;;;;;5042472;28;20545;-79
2021/07/04 00:55:18;;;;;;;12.00;10.93;;;18.40;74.60;;;;;;5053025;28;20557;-79
2021/07/04 00:57:46;;;;;;;11.67;10.67;;;18.40;74.70;;;;;;5058992;28;20603;-79
2021/07/04 01:00:15;;;;;;;12.50;11.40;;;18.40;74.70;;;;;;5060192;28;20450;-79
2021/07/04 01:02:44;;;;;;;13.07;11.87;;;18.50;74.80;;;;;;5058995;28;20473;-79
2021/07/04 01:05:14;;;;;;;11.50;10.50;;;18.50;74.90;;;;;;5068011;28;20470;-79
2021/07/04 01:07:42;;;;;;;11.70;10.60;;;18.50;75.00;;;;;;5053117;28;20537;-79
2021/07/04 01:10:12;;;;;;;11.80;10.73;;;18.50;75.20;;;;;;5052917;28;20462;-78
2021/07/04 01:12:42;;;;;;;11.83;10.77;;;18.50;75.20;;;;;;5051196;28;20511;-78
2021/07/04 01:15:11;;;;;;;11.50;10.60;;;18.50;75.70;;;;;;5050019;28;20503;-78
2021/07/04 01:17:38;;;;;;;11.20;10.17;;;18.60;76.10;;;;;;5047799;28;20481;-78
2021/07/04 01:20:07;;;;;;;10.80;9.80;;;18.50;76.30;;;;;;5048528;28;20522;-78
2021/07/04 01:22:36;;;;;;;10.57;9.77;;;18.50;76.50;;;;;;5040714;28;20546;-78
2021/07/04 01:25:05;;;;;;;10.20;9.30;;;18.50;76.60;;;;;;5047918;28;20529;-78
2021/07/04 01:27:33;;;;;;;11.10;10.20;;;18.60;76.70;;;;;;5050995;28;20473;-78
2021/07/04 01:30:00;;;;;;;9.83;9.03;;;18.60;76.90;;;;;;5047471;28;20492;-78
2021/07/04 01:32:27;;;;;;;9.53;8.70;;;18.60;77.10;;;;;;5048317;28;20448;-77
2021/07/04 01:34:53;;;;;;;8.70;8.00;;;18.60;77.30;;;;;;5045167;28;20527;-78
2021/07/04 01:37:20;;;;;;;9.90;9.00;;;18.60;77.30;;;;;;5046735;28;20518;-79
2021/07/04 01:39:47;;;;;;;9.63;8.83;;;18.60;77.30;;;;;;5053637;28;20478;-79
2021/07/04 01:42:16;;;;;;;10.00;9.13;;;18.60;77.20;;;;;;5049855;28;20445;-79
2021/07/04 01:44:42;;;;;;;8.73;7.93;;;18.60;77.40;;;;;;5059618;28;20823;-81
2021/07/04 01:47:09;;;;;;;9.20;8.40;;;18.50;77.20;;;;;;5051802;28;20566;-79
2021/07/04 01:49:36;;;;;;;10.23;9.07;;;18.60;77.00;;;;;;5048346;28;20454;-79
2021/07/04 01:52:04;;;;;;;9.53;8.63;;;18.60;76.60;;;;;;5045710;28;20969;-79
2021/07/04 01:54:32;;;;;;;9.00;8.20;;;18.60;76.60;;;;;;5045781;28;20531;-79
2021/07/04 01:56:59;;;;;;;10.20;9.30;;;18.60;76.70;;;;;;5046087;28;20536;-79
2021/07/04 01:59:27;;;;;;;9.00;8.30;;;18.60;76.80;;;;;;5046515;28;20461;-79
2021/07/04 02:01:54;;;;;;;9.50;8.70;;;18.60;76.50;;;;;;5051322;28;20451;-78
2021/07/04 02:04:21;;;;;;;9.60;8.80;;;18.70;76.70;;;;;;5043353;28;20496;-78
2021/07/04 02:06:48;;;;;;;9.90;9.10;;;18.70;76.40;;;;;;5046935;28;20841;-78
2021/07/04 02:09:17;;;;;;;8.87;8.13;;;18.70;76.10;;;;;;5044569;28;21078;-79
2021/07/04 02:11:45;;;;;;;9.87;8.83;;;18.70;76.30;;;;;;5047359;28;20445;-79
2021/07/04 02:14:13;;;;;;;10.67;9.67;;;18.70;76.80;;;;;;5056716;28;20449;-78
2021/07/04 02:16:41;;;;;;;10.03;9.13;;;18.60;76.50;;;;;;5044777;28;20998;-78
2021/07/04 02:19:08;;;;;;;10.13;9.23;;;18.60;76.80;;;;;;5052194;28;20455;-78
2021/07/04 02:21:35;;;;;;;9.53;8.53;;;18.60;77.00;;;;;;5046834;28;20445;-78
2021/07/04 02:24:02;;;;;;;9.13;8.43;;;18.60;77.20;;;;;;5049740;28;20840;-78
2021/07/04 02:26:28;;;;;;;9.93;9.13;;;18.50;76.70;;;;;;5047980;28;20895;-78
2021/07/04 02:28:55;;;;;;;9.27;8.47;;;18.50;77.20;;;;;;5047290;28;20480;-78
2021/07/04 02:31:22;;;;;;;9.27;8.40;;;18.50;77.30;;;;;;5061686;28;20905;-78
2021/07/04 02:33:50;;;;;;;8.50;7.80;;;18.50;77.20;;;;;;5056976;28;20518;-78
2021/07/04 02:36:20;;;;;;;10.00;9.20;;;18.40;77.10;;;;;;5048594;28;20452;-79
2021/07/04 02:38:46;;;;;;;9.27;8.47;;;18.50;76.90;;;;;;5055262;28;20552;-79
2021/07/04 02:41:13;;;;;;;9.03;8.33;;;18.40;76.90;;;;;;5055767;28;21037;-78
2021/07/04 02:43:40;;;;;;;9.20;8.50;;;18.50;76.90;;;;;;5054685;28;20731;-79
2021/07/04 02:46:07;;;;;;;9.10;8.30;;;18.40;76.50;;;;;;5055119;28;20594;-79
2021/07/04 02:48:34;;;;;;;9.47;8.67;;;18.40;76.70;;;;;;5055645;28;20850;-79
2021/07/04 02:51:02;;;;;;;8.60;7.90;;;18.40;77.10;;;;;;5054531;28;20544;-79
2021/07/04 02:53:29;;;;;;;9.13;8.33;;;18.40;76.80;;;;;;5042967;28;20497;-78
2021/07/04 02:55:56;;;;;;;9.07;8.27;;;18.40;76.40;;;;;;5045639;28;20465;-79
2021/07/04 02:58:22;;;;;;;8.90;8.10;;;18.30;76.50;;;;;;5042646;28;20456;-79
2021/07/04 03:00:49;;;;;;;8.70;8.00;;;18.40;76.70;;;;;;5044134;28;20466;-79
2021/07/04 03:03:16;;;;;;;8.30;7.60;;;18.30;76.60;;;;;;5046709;28;20507;-78
2021/07/04 03:05:43;;;;;;;8.10;7.50;;;18.30;76.50;;;;;;5058078;28;20505;-78
2021/07/04 03:08:11;;;;;;;8.10;7.40;;;18.30;76.50;;;;;;5053595;28;20472;-78
2021/07/04 03:10:38;;;;;;;8.67;7.97;;;18.20;76.70;;;;;;5054062;28;20454;-78
2021/07/04 03:13:05;;;;;;;8.80;8.00;;;18.30;77.00;;;;;;5048754;28;20444;-79
2021/07/04 03:15:32;;;;;;;7.70;7.10;;;18.20;76.80;;;;;;5054885;28;21011;-78
2021/07/04 03:17:59;;;;;;;8.50;7.80;;;18.20;77.00;;;;;;5054055;28;20448;-80
2021/07/04 03:20:26;;;;;;;7.97;7.37;;;18.20;76.80;;;;;;5053997;28;20451;-79
2021/07/04 03:22:53;;;;;;;9.13;8.23;;;18.20;77.10;;;;;;5046389;28;20503;-77
2021/07/04 03:25:21;;;;;;;8.43;7.70;;;18.20;76.90;;;;;;5049698;28;20463;-77
2021/07/04 03:27:48;;;;;;;8.57;7.87;;;18.20;76.90;;;;;;5054003;28;20521;-77
2021/07/04 03:30:19;;;;;;;8.30;7.60;;;18.20;76.70;;;;;;5054646;28;20453;-78
2021/07/04 03:32:47;;;;;;;8.80;8.00;;;18.20;76.70;;;;;;5043067;28;20476;-77
2021/07/04 03:35:15;;;;;;;8.80;8.00;;;18.20;76.80;;;;;;5065670;28;20531;-78
2021/07/04 03:37:43;;;;;;;8.90;8.03;;;18.20;77.10;;;;;;5054970;28;20979;-78
2021/07/04 03:40:12;;;;;;;8.60;7.83;;;18.20;77.10;;;;;;5049474;28;21068;-78
2021/07/04 03:42:41;;;;;;;9.10;8.27;;;18.20;77.80;;;;;;5039079;28;21871;-78
2021/07/04 03:45:09;;;;;;;8.50;7.80;;;18.20;77.90;;;;;;5035322;28;20572;-79
2021/07/04 03:47:36;;;;;;;8.50;7.70;;;18.10;77.90;;;;;;5035523;28;20474;-78
2021/07/04 03:50:05;;;;;;;9.10;8.40;;;18.10;78.50;;;;;;5031195;28;20471;-79
2021/07/04 03:52:31;;;;;;;9.10;8.20;;;18.00;78.90;;;;;;5053202;28;20771;-79
2021/07/04 03:54:58;;;;;;;8.43;7.73;;;18.00;81.10;;;;;;5045519;28;20453;-78
2021/07/04 03:57:27;;;;;;;10.17;8.93;;;18.00;81.60;;;;;;5047795;28;20437;-79
2021/07/04 03:59:57;;;;;;;9.30;8.50;;;18.00;84.00;;;;;;5041851;28;20441;-78
2021/07/04 04:02:25;;;;;;;9.60;8.80;;;18.00;83.60;;;;;;5054456;28;20951;-77
2021/07/04 04:04:55;;;;;;;9.37;8.57;;;18.00;82.90;;;;;;5046408;28;20561;-78
2021/07/04 04:07:22;;;;;;;9.53;8.60;;;18.00;82.20;;;;;;5046547;28;20469;-78
2021/07/04 04:09:51;;;;;;;9.07;8.27;;;18.00;82.50;;;;;;5039531;28;20515;-78
2021/07/04 04:12:18;;;;;;;9.30;8.50;;;18.00;82.50;;;;;;5056000;28;20488;-78
2021/07/04 04:14:45;;;;;;;9.80;9.00;;;18.00;82.80;;;;;;5045660;28;20462;-78
2021/07/04 04:17:13;;;;;;;8.80;7.90;;;18.00;83.80;;;;;;5046671;28;20903;-78
2021/07/04 04:19:41;;;;;;;9.60;8.80;;;18.10;83.60;;;;;;5056287;28;20457;-78
2021/07/04 04:22:08;;;;;;;8.43;7.70;;;18.10;83.90;;;;;;5042599;28;20453;-79
2021/07/04 04:24:35;;;;;;;9.17;8.37;;;18.10;82.10;;;;;;5053240;28;20985;-78
2021/07/04 04:27:02;;;;;;;9.37;8.43;;;18.20;82.00;;;;;;5051053;28;20565;-77
2021/07/04 04:29:29;;;;;;;8.97;8.27;;;18.20;82.00;;;;;;5047274;28;20965;-77
2021/07/04 04:31:55;;;;;;;9.17;8.33;;;18.30;81.60;;;;;;5042461;28;20535;-77
2021/07/04 04:34:24;;;;;;;8.30;7.60;;;18.40;81.20;;;;;;5051231;28;20513;-77
2021/07/04 04:36:50;;;;;;;9.60;8.80;;;18.40;80.60;;;;;;5044548;28;20530;-78
2021/07/04 04:39:20;;;;;;;9.07;8.30;;;18.40;80.60;;;;;;5053677;28;20456;-78
2021/07/04 04:41:47;;;;;;;10.17;9.33;;;18.40;80.50;;;;;;5045794;28;20466;-78
2021/07/04 04:44:14;;;;;;;8.83;8.03;;;18.40;80.60;;;;;;5048989;28;20463;-77
2021/07/04 04:46:41;;;;;;;9.90;9.00;;;18.40;80.80;;;;;;5035347;28;20581;-78
2021/07/04 04:49:08;;;;;;;9.63;8.73;;;18.40;80.70;;;;;;5050405;28;20799;-81
2021/07/04 04:51:37;;;;;;;9.27;8.47;;;18.40;80.70;;;;;;5055487;28;21045;-78
2021/07/04 04:54:04;;;;;;;10.07;9.20;;;18.40;81.10;;;;;;5049344;28;20456;-77
2021/07/04 04:56:31;;;;;;;9.43;8.63;;;18.40;81.30;;;;;;5047904;28;20526;-78
2021/07/04 04:58:58;;;;;;;9.60;8.80;;;18.40;81.20;;;;;;5053810;28;20524;-79
2021/07/04 05:01:27;;;;;;;9.30;8.60;;;18.40;81.20;;;;;;5051838;28;20979;-78
2021/07/04 05:03:54;;;;;;;9.73;8.83;;;18.50;81.30;;;;;;5050291;28;20463;-79
2021/07/04 05:06:21;;;;;;;8.67;7.87;;;18.50;81.10;;;;;;5037303;28;20505;-79
2021/07/04 05:08:50;;;;;;;9.70;8.80;;;18.50;81.00;;;;;;5035997;28;20487;-79
2021/07/04 05:11:17;;;;;;;10.60;9.60;;;18.60;81.10;;;;;;5046217;28;20488;-78
2021/07/04 05:13:44;;;;;;;9.13;8.33;;;18.50;81.20;;;;;;5051251;28;20851;-79
2021/07/04 05:16:11;;;;;;;9.90;9.10;;;18.50;81.30;;;;;;5057915;28;20472;-79
2021/07/04 05:18:38;;;;;;;10.40;9.50;;;18.60;81.30;;;;;;5045106;28;20463;-79
2021/07/04 05:21:05;;;;;;;10.70;9.80;;;18.50;81.30;;;;;;5045049;28;20811;-78
2021/07/04 05:23:32;;;;;;;10.60;9.33;;;18.50;81.20;;;;;;5044757;28;20827;-78
2021/07/04 05:26:00;;;;;;;10.10;9.10;;;18.50;81.20;;;;;;5060997;28;20449;-79
2021/07/04 05:28:28;;;;;;;9.70;8.80;;;18.60;81.10;;;;;;5055267;28;20453;-79
2021/07/04 05:30:55;;;;;;;10.17;9.13;;;18.60;80.60;;;;;;5053501;28;20441;-79
2021/07/04 05:33:22;;;;;;;10.47;9.57;;;18.70;80.20;;;;;;5054028;28;20965;-79
2021/07/04 05:35:49;;;;;;;10.53;9.57;;;18.70;80.10;;;;;;5051099;28;20443;-78
2021/07/04 05:38:20;;;;;;;10.63;9.57;;;18.70;80.20;;;;;;5049062;28;20450;-79
2021/07/04 05:40:48;;;;;;;9.53;8.63;;;18.70;80.10;;;;;;5059902;28;20483;-79
2021/07/04 05:43:17;;;;;;;10.70;9.90;;;18.60;80.60;;;;;;5055741;28;20462;-78
2021/07/04 05:45:44;;;;;;;10.97;9.87;;;18.60;80.60;;;;;;5059738;28;20460;-78
2021/07/04 05:48:12;;;;;;;10.70;9.70;;;18.60;80.70;;;;;;5039231;28;20514;-78
2021/07/04 05:50:39;;;;;;;9.63;8.73;;;18.80;80.50;;;;;;5039274;28;20518;-78
2021/07/04 05:53:06;;;;;;;10.17;9.37;;;18.80;80.10;;;;;;5033032;28;20557;-78
2021/07/04 05:55:33;;;;;;;9.70;8.80;;;18.90;79.70;;;;;;5051513;28;20457;-78
2021/07/04 05:58:00;;;;;;;10.60;9.70;;;19.00;79.20;;;;;;5042058;28;20528;-78
2021/07/04 06:00:28;;;;;;;9.93;9.13;;;19.00;78.90;;;;;;5046028;28;20469;-79
2021/07/04 06:02:55;;;;;;;10.70;9.80;;;19.10;78.50;;;;;;5040004;28;20446;-79
2021/07/04 06:05:23;;;;;;;9.70;8.90;;;19.10;78.30;;;;;;5037611;28;21250;-79
2021/07/04 06:07:50;;;;;;;10.20;9.40;;;19.20;78.20;;;;;;5050545;28;20493;-79
2021/07/04 06:10:17;;;;;;;9.87;9.07;;;19.30;77.60;;;;;;5047219;28;20580;-78
2021/07/04 06:12:44;;;;;;;9.87;8.97;;;19.30;77.30;;;;;;5058223;28;20495;-78
2021/07/04 06:15:12;;;;;;;8.93;8.13;;;19.30;77.40;;;;;;5047180;28;20812;-79
2021/07/04 06:17:41;;;;;;;9.20;8.33;;;19.30;77.00;;;;;;5045764;28;20475;-79
2021/07/04 06:20:10;;;;;;;9.77;8.77;;;19.40;76.70;;;;;;5045001;28;20449;-79
2021/07/04 06:22:38;;;;;;;9.77;8.97;;;19.40;76.50;;;;;;5057744;28;20457;-80
2021/07/04 06:25:06;;;;;;;10.60;9.60;;;19.50;76.20;;;;;;5056177;28;20452;-81
2021/07/04 06:27:33;;;;;;;10.40;9.50;;;19.50;76.00;;;;;;5067065;28;20467;-81
2021/07/04 06:30:00;;;;;;;10.20;9.30;;;19.50;76.10;;;;;;5063462;28;20517;-79
2021/07/04 06:32:27;;;;;;;11.40;10.30;;;19.60;75.70;;;;;;5072972;28;20479;-81
2021/07/04 06:34:56;;;;;;;10.63;9.37;;;19.60;75.30;;;;;;5064238;28;20457;-81
2021/07/04 06:37:23;;;;;;;11.60;9.97;;;19.70;74.90;;;;;;5060502;28;20456;-81
2021/07/04 06:39:50;;;;;;;9.50;8.70;;;19.80;74.60;;;;;;5058825;28;21001;-81
2021/07/04 06:42:17;;;;;;;9.13;8.33;;;19.90;74.70;;;;;;5061098;28;20525;-80
2021/07/04 06:44:44;;;;;;;9.43;8.67;;;19.90;74.10;;;;;;5066627;28;20455;-80
2021/07/04 06:47:11;;;;;;;9.90;9.10;;;19.90;73.80;;;;;;5057416;28;21023;-81
2021/07/04 06:49:38;;;;;;;8.60;7.90;;;19.90;73.60;;;;;;5055334;28;20497;-80
2021/07/04 06:52:07;;;;;;;10.33;9.33;;;19.80;73.80;;;;;;5053043;28;20462;-80
2021/07/04 06:54:34;;;;;;;9.83;8.87;;;20.00;73.60;;;;;;5049564;28;20456;-80
2021/07/04 06:57:26;;;;;;;10.20;9.30;;;20.00;73.10;;;;;;5052120;28;20464;-80
2021/07/04 06:59:48;;;;;;;10.23;9.33;;;19.90;73.20;;;;;;5052528;28;20465;-81
2021/07/04 07:02:15;;;;;;;10.50;9.63;;;20.00;73.40;;;;;;5046312;28;20453;-81
2021/07/04 07:04:42;;;;;;;10.87;9.97;;;20.10;73.20;;;;;;5054154;28;20449;-81
2021/07/04 07:07:10;;;;;;;10.30;9.40;;;20.10;72.90;;;;;;5051892;28;20465;-81
2021/07/04 07:09:40;;;;;;;9.77;8.87;;;20.00;73.30;;;;;;5036022;28;21310;-80
2021/07/04 07:12:07;;;;;;;9.23;8.43;;;20.10;73.00;;;;;;5064175;28;20472;-82
2021/07/04 07:14:34;;;;;;;10.13;9.20;;;20.20;72.90;;;;;;5069158;28;20472;-82
2021/07/04 07:17:01;;;;;;;9.87;9.07;;;20.10;72.30;;;;;;5051489;28;20482;-80
2021/07/04 07:19:28;;;;;;;11.20;10.10;;;20.20;72.40;;;;;;5054356;28;20459;-81
2021/07/04 07:21:56;;;;;;;9.70;8.90;;;20.20;72.40;;;;;;5067225;28;20510;-81
2021/07/04 07:24:24;;;;;;;9.63;8.67;;;20.30;72.00;;;;;;5059934;28;20534;-81
2021/07/04 07:26:51;;;;;;;9.57;8.87;;;20.30;72.00;;;;;;5057684;28;20475;-83
2021/07/04 07:29:18;;;;;;;9.77;8.87;;;20.40;71.90;;;;;;5065771;28;20481;-83
2021/07/04 07:31:46;;;;;;;9.97;9.07;;;20.30;72.30;;;;;;5058431;28;20457;-83
2021/07/04 07:34:14;;;;;;;10.73;9.73;;;20.40;72.20;;;;;;5048959;28;20477;-83
2021/07/04 07:36:42;;;;;;;11.40;10.50;;;20.50;72.20;;;;;;5067275;28;20505;-84
2021/07/04 07:39:09;;;;;;;10.27;9.20;;;20.60;71.90;;;;;;5045610;28;20455;-84
2021/07/04 07:41:39;;;;;;;10.73;9.63;;;20.60;72.00;;;;;;5064321;28;20446;-83
2021/07/04 07:44:07;;;;;;;9.80;8.90;;;20.70;71.70;;;;;;5068241;28;20899;-83
2021/07/04 07:46:34;;;;;;;10.53;9.63;;;20.90;71.60;;;;;;5071033;28;20477;-83
2021/07/04 07:49:03;;;;;;;9.13;8.33;;;21.00;71.40;;;;;;5068286;28;20477;-84
2021/07/04 07:51:30;;;;;;;9.93;9.10;;;21.30;70.70;;;;;;5073875;28;20482;-82
2021/07/04 07:53:57;;;;;;;10.70;9.80;;;21.50;70.20;;;;;;5071805;28;20492;-82
2021/07/04 07:56:24;;;;;;;11.13;10.13;;;21.60;69.80;;;;;;5072550;28;20471;-83
2021/07/04 07:58:53;;;;;;;9.43;8.73;;;21.80;69.70;;;;;;5065577;28;20489;-84
2021/07/04 08:01:20;;;;;;;10.47;9.57;;;22.10;69.70;;;;;;5072904;28;20439;-83
2021/07/04 08:03:47;;;;;;;10.80;9.90;;;22.40;68.90;;;;;;5067312;28;20468;-84
2021/07/04 08:06:14;;;;;;;9.10;8.40;;;22.80;68.60;;;;;;5069096;28;20796;-83
2021/07/04 08:08:41;;;;;;;9.40;8.70;;;23.40;67.30;;;;;;5060383;28;20493;-83
2021/07/04 08:11:08;;;;;;;10.10;9.20;;;23.40;66.30;;;;;;5053151;28;20471;-81
2021/07/04 08:13:36;;;;;;;9.77;8.90;;;23.30;65.80;;;;;;5053033;28;20906;-82
2021/07/04 08:16:05;;;;;;;9.03;8.33;;;23.10;66.10;;;;;;5060299;28;20504;-83
2021/07/04 08:18:32;;;;;;;8.60;7.90;;;23.00;66.20;;;;;;5056338;28;20559;-83
2021/07/04 08:20:59;;;;;;;8.63;8.00;;;23.40;65.70;;;;;;5054922;28;20459;-82
2021/07/04 08:23:26;;;;;;;9.00;8.20;;;23.50;65.40;;;;;;5057626;28;20511;-82
2021/07/04 08:25:54;;;;;;;9.40;8.20;;;23.40;65.10;;;;;;5056166;28;20456;-84
2021/07/04 08:28:22;;;;;;;8.17;7.57;;;23.40;65.20;;;;;;5069647;28;20492;-83
2021/07/04 08:30:49;;;;;;;8.67;7.87;;;23.70;64.90;;;;;;5073160;28;20476;-83
2021/07/04 08:33:17;;;;;;;9.13;8.30;;;24.00;64.00;;;;;;5060446;28;20480;-81
2021/07/04 08:35:47;;;;;;;8.80;8.00;;;24.00;63.40;;;;;;5063125;28;20476;-82
2021/07/04 08:38:14;;;;;;;7.07;6.47;;;24.10;63.10;;;;;;5065941;28;20488;-82
2021/07/04 08:40:41;;;;;;;8.13;7.33;;;24.30;62.30;;;;;;5063664;28;20484;-82
2021/07/04 08:43:08;;;;;;;8.47;7.87;;;24.60;62.30;;;;;;5065374;28;20462;-82
2021/07/04 08:45:36;;;;;;;8.00;7.40;;;24.80;61.40;;;;;;5064451;28;20450;-83
2021/07/04 08:48:04;;;;;;;6.83;6.40;;;25.10;61.40;;;;;;5045016;28;20938;-83
2021/07/04 08:50:33;;;;;;;7.03;6.53;;;25.00;60.20;;;;;;5060549;28;20554;-82
2021/07/04 08:53:00;;;;;;;7.10;6.50;;;25.00;60.50;;;;;;5065663;28;20546;-83
2021/07/04 08:55:29;;;;;;;7.40;6.70;;;24.90;59.60;;;;;;5054850;28;20490;-82
2021/07/04 08:57:57;;;;;;;6.80;6.30;;;25.00;59.70;;;;;;5053095;28;20460;-82
2021/07/04 09:00:25;;;;;;;7.57;6.97;;;24.30;59.80;;;;;;5052590;28;20975;-83
2021/07/04 09:02:52;;;;;;;7.50;6.90;;;24.30;60.70;;;;;;5056304;28;20465;-82
2021/07/04 09:05:20;;;;;;;7.17;6.57;;;24.00;60.90;;;;;;5064054;28;20436;-82
2021/07/04 09:07:50;;;;;;;7.10;6.60;;;24.40;61.30;;;;;;5056551;28;20473;-83
2021/07/04 09:10:19;;;;;;;7.87;7.17;;;24.60;59.70;;;;;;5059809;28;20494;-83
2021/07/04 09:12:48;;;;;;;6.97;6.27;;;25.10;59.70;;;;;;5053236;28;20456;-82
2021/07/04 09:15:17;;;;;;;7.10;6.60;;;25.10;59.10;;;;;;5054813;28;20453;-83
2021/07/04 09:17:47;;;;;;;6.60;6.00;;;24.70;59.80;;;;;;5055097;28;21018;-79
2021/07/04 09:20:17;;;;;;;6.80;6.30;;;25.00;59.70;;;;;;5064614;28;20560;-79
2021/07/04 09:22:46;;;;;;;7.10;6.40;;;25.60;59.20;;;;;;5036456;28;20481;-80
2021/07/04 09:25:16;;;;;;;7.00;6.50;;;25.70;59.10;;;;;;5058682;28;20445;-78
2021/07/04 09:27:59;;;;;;;7.67;6.63;;;25.80;58.90;;;;;;5050596;28;20503;-79
2021/07/04 09:30:34;;;;;;;7.07;6.57;;;25.90;58.50;;;;;;5059824;28;20457;-81
2021/07/04 09:33:10;;;;;;;7.13;5.70;;;26.20;57.00;;;;;;5048589;28;20459;-81
2021/07/04 09:35:38;;;;;;;7.07;6.37;;;26.30;57.20;;;;;;5054868;28;20446;-81
2021/07/04 09:38:14;;;;;;;6.37;5.87;;;26.40;57.30;;;;;;5051244;28;20454;-81
2021/07/04 09:40:43;;;;;;;6.50;6.07;;;25.80;57.20;;;;;;5057626;28;20437;-81
2021/07/04 09:43:15;;;;;;;5.90;5.40;;;25.30;57.30;;;;;;5053159;28;20495;-81
2021/07/04 09:45:48;;;;;;;6.37;5.87;;;25.50;57.50;;;;;;5058971;28;20467;-81
2021/07/04 09:48:17;;;;;;;6.80;6.20;;;25.20;56.60;;;;;;5057045;28;20487;-82
2021/07/04 09:50:46;;;;;;;5.97;5.57;;;25.40;57.50;;;;;;5067185;28;20809;-80
2021/07/04 09:53:13;;;;;;;6.13;5.63;;;25.80;56.60;;;;;;5062681;28;20815;-80
2021/07/04 09:55:42;;;;;;;6.37;5.90;;;25.50;56.90;;;;;;5060080;28;20453;-80
2021/07/04 09:58:10;;;;;;;5.70;5.30;;;25.70;56.60;;;;;;5052071;28;20453;-80
2021/07/04 10:00:39;;;;;;;6.90;6.40;;;25.60;57.10;;;;;;5053461;28;20548;-81
2021/07/04 10:03:09;;;;;;;6.53;5.93;;;25.70;56.40;;;;;;5050400;28;20450;-82
2021/07/04 10:05:36;;;;;;;6.50;6.00;;;25.70;57.10;;;;;;5064947;28;20441;-81
2021/07/04 10:08:21;;;;;;;6.50;6.10;;;26.30;56.90;;;;;;5052657;28;20470;-80
2021/07/04 10:10:51;;;;;;;7.10;6.00;;;26.70;55.80;;;;;;5060772;28;20440;-79
2021/07/04 10:13:18;;;;;;;7.03;6.43;;;26.40;55.50;;;;;;5056210;28;21015;-78
2021/07/04 10:15:45;;;;;;;7.30;6.70;;;26.70;55.70;;;;;;5054035;28;20462;-79
2021/07/04 10:18:13;;;;;;;6.77;6.17;;;26.50;54.90;;;;;;5053538;28;20465;-80
2021/07/04 10:20:44;;;;;;;6.40;5.90;;;26.50;55.20;;;;;;5049086;28;20454;-79
2021/07/04 10:23:13;;;;;;;5.50;5.10;;;25.70;55.10;;;;;;5053498;28;20571;-80
2021/07/04 10:25:42;;;;;;;6.30;5.90;;;25.60;55.30;;;;;;5044687;28;20898;-79
2021/07/04 10:28:12;;;;;;;6.10;5.60;;;25.60;56.10;;;;;;5051951;28;20504;-81
2021/07/04 10:30:41;;;;;;;5.40;5.00;;;26.60;55.40;;;;;;5052430;28;20539;-79
2021/07/04 10:33:16;;;;;;;5.67;5.27;;;26.80;54.00;;;;;;5055025;28;20470;-82
2021/07/04 10:36:07;;;;;;;6.30;5.87;;;26.90;54.80;;;;;;5056350;28;20488;-80
2021/07/04 10:38:43;;;;;;;5.43;5.03;;;26.80;55.00;;;;;;5057075;28;20507;-79
2021/07/04 10:41:11;;;;;;;5.80;5.30;;;27.00;54.50;;;;;;5055401;28;20903;-79
2021/07/04 10:43:55;;;;;;;5.77;5.37;;;26.90;54.40;;;;;;5061357;28;20452;-80
2021/07/04 10:46:55;;;;;;;6.50;6.10;;;27.00;54.70;;;;;;5036472;28;20440;-80
2021/07/04 10:49:24;;;;;;;5.77;5.37;;;26.40;54.50;;;;;;5055059;28;20494;-79
2021/07/04 10:51:56;;;;;;;5.80;5.40;;;26.40;54.80;;;;;;5060521;28;20465;-79
2021/07/04 10:54:49;;;;;;;5.93;5.43;;;26.60;54.50;;;;;;5074959;28;20477;-78
2021/07/04 10:57:21;;;;;;;11.10;5.73;;;25.80;55.20;;;;;;5067164;28;20508;-78
2021/07/04 11:00:17;;;;;;;5.47;4.93;;;25.80;56.00;;;;;;5064308;28;20446;-80
2021/07/04 11:02:46;;;;;;;5.30;4.90;;;26.20;54.90;;;;;;5056024;28;20447;-79
2021/07/04 11:05:14;;;;;;;4.70;4.40;;;26.30;54.20;;;;;;5060322;28;20456;-79
2021/07/04 11:08:09;;;;;;;5.03;4.70;;;26.30;54.50;;;;;;5053170;28;20820;-80
2021/07/04 11:10:37;;;;;;;5.00;4.60;;;26.30;54.50;;;;;;5055791;28;20472;-80
2021/07/04 11:13:25;;;;;;;5.67;5.20;;;26.20;54.20;;;;;;5056249;28;20852;-79
2021/07/04 11:16:11;;;;;;;6.00;5.47;;;25.80;55.00;;;;;;5053858;28;20499;-79
2021/07/04 11:18:44;;;;;;;7.13;6.40;;;25.70;56.50;;;;;;5046750;28;20518;-79
2021/07/04 11:21:11;;;;;;;8.30;6.60;;;25.00;60.30;;;;;;5061685;28;20510;-79
2021/07/04 11:23:38;;;;;;;5.83;5.33;;;24.20;61.40;;;;;;5057961;28;20460;-79
2021/07/04 11:26:14;;;;;;;6.30;5.90;;;23.70;62.00;;;;;;5053457;28;20514;-79
2021/07/04 11:28:41;;;;;;;5.80;5.40;;;23.60;61.70;;;;;;5060705;28;20478;-79
2021/07/04 11:31:27;;;;;;;5.77;5.37;;;23.60;61.70;;;;;;5054857;28;20492;-79
2021/07/04 11:33:56;;;;;;;6.47;5.10;;;23.60;62.20;;;;;;5052153;28;20444;-79
2021/07/04 11:36:25;;;;;;;6.13;5.63;;;23.50;62.30;;;;;;5055644;28;20439;-80
2021/07/04 11:38:55;;;;;;;7.30;6.77;;;23.60;62.60;;;;;;5062200;28;20450;-78
2021/07/04 11:41:25;;;;;;;6.03;5.50;;;23.80;63.10;;;;;;5061631;28;21042;-78
2021/07/04 11:43:53;;;;;;;5.83;5.33;;;23.60;63.90;;;;;;5050297;28;20452;-78
2021/07/04 11:46:21;;;;;;;6.00;5.40;;;23.60;64.20;;;;;;5052029;28;20453;-78
2021/07/04 11:48:53;;;;;;;6.17;5.60;;;23.40;63.80;;;;;;5050220;28;20477;-78
2021/07/04 11:51:43;;;;;;;4.70;4.40;;;23.30;64.60;;;;;;5056559;28;20441;-78
2021/07/04 11:54:13;;;;;;;4.80;4.40;;;23.20;65.50;;;;;;5046947;28;20465;-79
2021/07/04 11:56:42;;;;;;;4.90;4.50;;;23.10;65.70;;;;;;5057468;28;21064;-78
2021/07/04 11:59:18;;;;;;;5.20;4.80;;;22.90;66.00;;;;;;5052533;28;20615;-78
2021/07/04 12:01:48;;;;;;;3.50;3.30;;;22.70;65.80;;;;;;5046097;28;20529;-79
2021/07/04 12:04:17;;;;;;;3.50;3.20;;;22.60;65.30;;;;;;5036646;28;20539;-79
2021/07/04 12:06:55;;;;;;;3.07;2.87;;;22.60;64.70;;;;;;5042905;28;20474;-78
2021/07/04 12:09:38;;;;;;;2.93;2.73;;;22.70;64.20;;;;;;5047536;28;20560;-79
2021/07/04 12:12:06;;;;;;;3.37;2.77;;;22.80;63.50;;;;;;5048094;28;20464;-79
2021/07/04 12:14:35;;;;;;;2.83;2.57;;;22.90;62.60;;;;;;5057717;28;20437;-78
2021/07/04 12:17:27;;;;;;;2.87;2.50;;;23.00;62.20;;;;;;5054499;28;20467;-78
2021/07/04 12:20:02;;;;;;;2.93;2.50;;;23.10;62.80;;;;;;5033687;28;20450;-78
2021/07/04 12:22:31;;;;;;;2.60;2.40;;;23.10;63.90;;;;;;5039385;28;20540;-79
2021/07/04 12:24:59;;;;;;;3.77;2.73;;;23.70;63.50;;;;;;5034129;28;20862;-79
2021/07/04 12:27:36;;;;;;;7.43;5.40;;;24.30;63.80;;;;;;5040684;28;21055;-79
2021/07/04 12:30:19;;;;;;;3.30;2.97;;;24.40;63.00;;;;;;5049068;28;20526;-78
2021/07/04 12:32:48;;;;;;;4.07;3.63;;;24.20;63.60;;;;;;5034321;28;20460;-79
2021/07/04 12:35:22;;;;;;;3.83;3.53;;;24.20;63.40;;;;;;5032006;28;20478;-78
2021/07/04 12:37:50;;;;;;;3.50;3.20;;;24.20;63.40;;;;;;5032921;28;20672;-80
2021/07/04 12:40:19;;;;;;;4.33;3.70;;;24.40;63.10;;;;;;5060318;28;20440;-79
2021/07/04 12:42:46;;;;;;;2.97;2.77;;;24.10;62.50;;;;;;5057891;28;20560;-79
2021/07/04 12:45:15;;;;;;;3.63;3.33;;;24.00;61.40;;;;;;5056348;28;20810;-79
2021/07/04 12:47:42;;;;;;;3.17;2.97;;;24.10;61.60;;;;;;5052447;28;20467;-79
2021/07/04 12:50:14;;;;;;;3.80;3.50;;;24.10;61.40;;;;;;5056481;28;20502;-79
2021/07/04 12:52:55;;;;;;;3.73;3.53;;;23.90;61.50;;;;;;5051449;28;20905;-79